createdAt,value
2023-02-23T00:02:11.692Z,15.65
2023-02-23T00:04:41.873Z,15.65
2023-02-23T00:07:13.007Z,15.65
2023-02-23T00:09:44.269Z,15.62
2023-02-23T00:12:13.445Z,15.66
2023-02-23T00:14:42.631Z,15.65
2023-02-23T00:17:11.893Z,15.66
2023-02-23T00:19:41.507Z,15.64
2023-02-23T00:22:14.766Z,15.65
2023-02-23T00:24:43.941Z,15.65
2023-02-23T00:27:13.185Z,15.65
2023-02-23T00:29:42.035Z,15.66
2023-02-23T00:32:10.407Z,15.66
2023-02-23T00:34:39.736Z,15.61
2023-02-23T00:37:08.137Z,15.66
2023-02-23T00:39:36.845Z,15.65
2023-02-23T00:42:05.711Z,15.66
2023-02-23T00:44:34.732Z,15.64
2023-02-23T00:47:04.752Z,15.66
2023-02-23T00:49:33.607Z,15.61
2023-02-23T00:52:04.174Z,15.66
2023-02-23T00:54:33.475Z,15.66
2023-02-23T00:57:02.687Z,15.66
2023-02-23T00:59:31.585Z,15.66
2023-02-23T01:02:00.514Z,15.66
2023-02-23T01:04:29.778Z,15.66
2023-02-23T01:06:58.599Z,15.66
2023-02-23T01:09:28.415Z,15.66
2023-02-23T01:11:56.745Z,15.66
2023-02-23T01:14:25.702Z,15.67
2023-02-23T01:16:54.579Z,15.67
2023-02-23T01:19:23.926Z,15.66
2023-02-23T01:21:52.783Z,15.66
2023-02-23T01:24:22.538Z,15.66
2023-02-23T01:26:52.392Z,15.67
2023-02-23T01:29:21.265Z,15.65
2023-02-23T01:31:52.298Z,15.64
2023-02-23T01:34:21.644Z,15.66
2023-02-23T01:36:51.484Z,15.64
2023-02-23T01:39:20.354Z,15.65
2023-02-23T01:41:49.198Z,15.66
2023-02-23T01:44:18.129Z,15.65
2023-02-23T01:46:49.045Z,15.66
2023-02-23T01:49:18.927Z,15.65
2023-02-23T01:51:47.750Z,15.66
2023-02-23T01:54:16.932Z,15.66
2023-02-23T01:56:45.700Z,15.66
2023-02-23T01:59:14.500Z,15.65
2023-02-23T02:01:43.272Z,15.66
2023-02-23T02:04:12.172Z,15.66
2023-02-23T02:06:41.021Z,15.65
2023-02-23T02:09:10.320Z,15.65
2023-02-23T02:11:40.406Z,15.66
2023-02-23T02:14:08.849Z,15.65
2023-02-23T02:16:37.674Z,15.66
2023-02-23T02:19:06.483Z,15.64
2023-02-23T02:21:35.682Z,15.65
2023-02-23T02:24:04.462Z,15.64
2023-02-23T02:26:33.594Z,15.65
2023-02-23T02:29:03.843Z,15.64
2023-02-23T02:31:34.559Z,15.64
2023-02-23T02:34:03.869Z,15.65
2023-02-23T02:36:33.094Z,15.65
2023-02-23T02:39:01.837Z,15.65
2023-02-23T02:41:31.016Z,15.65
2023-02-23T02:44:00.229Z,15.65
2023-02-23T02:46:29.053Z,15.64
2023-02-23T02:48:57.907Z,15.65
2023-02-23T02:51:26.248Z,15.65
2023-02-23T02:53:55.087Z,15.65
2023-02-23T02:56:24.008Z,15.65
2023-02-23T02:58:52.915Z,15.65
2023-02-23T03:01:21.798Z,15.66
2023-02-23T03:03:52.400Z,15.65
2023-02-23T03:06:20.227Z,15.64
2023-02-23T03:08:49.874Z,15.64
2023-02-23T03:11:19.453Z,15.65
2023-02-23T03:13:48.262Z,15.64
2023-02-23T03:16:17.175Z,15.65
2023-02-23T03:18:45.995Z,15.66
2023-02-23T03:21:15.250Z,15.65
2023-02-23T03:23:44.387Z,15.64
2023-02-23T03:26:18.086Z,15.64
2023-02-23T03:28:46.857Z,15.64
2023-02-23T03:31:16.461Z,15.64
2023-02-23T03:33:44.910Z,15.64
2023-02-23T03:36:13.448Z,15.64
2023-02-23T03:38:43.569Z,15.64
2023-02-23T03:41:12.400Z,15.64
2023-02-23T03:43:41.568Z,15.63
2023-02-23T03:46:10.058Z,15.64
2023-02-23T03:48:38.637Z,15.64
2023-02-23T03:51:07.429Z,15.65
2023-02-23T03:53:36.690Z,15.63
2023-02-23T03:56:09.476Z,15.64
2023-02-23T03:58:38.705Z,15.63
2023-02-23T04:01:07.943Z,15.60
2023-02-23T04:03:37.358Z,15.64
2023-02-23T04:06:06.115Z,15.65
2023-02-23T04:08:35.337Z,15.64
2023-02-23T04:11:04.010Z,15.64
2023-02-23T04:13:33.215Z,15.62
2023-02-23T04:16:02.447Z,15.63
2023-02-23T04:18:30.957Z,15.63
2023-02-23T04:20:59.525Z,15.63
2023-02-23T04:23:28.258Z,15.64
2023-02-23T04:25:57.486Z,15.63
2023-02-23T04:28:26.491Z,15.64
2023-02-23T04:30:54.653Z,15.64
2023-02-23T04:33:24.020Z,15.64
2023-02-23T04:35:53.368Z,15.62
2023-02-23T04:38:22.666Z,15.64
2023-02-23T04:40:51.560Z,15.64
2023-02-23T04:43:20.984Z,15.63
2023-02-23T04:45:50.300Z,15.63
2023-02-23T04:48:19.659Z,15.63
2023-02-23T04:50:49.039Z,15.63
2023-02-23T04:53:17.651Z,15.63
2023-02-23T04:55:47.418Z,15.63
2023-02-23T04:58:16.282Z,15.63
2023-02-23T05:00:45.484Z,15.61
2023-02-23T05:03:14.220Z,15.63
2023-02-23T05:05:42.987Z,15.63
2023-02-23T05:08:12.214Z,15.62
2023-02-23T05:10:41.255Z,15.62
2023-02-23T05:13:09.516Z,15.63
2023-02-23T05:15:38.792Z,15.63
2023-02-23T05:18:07.803Z,15.63
2023-02-23T05:20:36.410Z,15.62
2023-02-23T05:23:05.675Z,15.58
2023-02-23T05:25:34.921Z,15.63
2023-02-23T05:28:04.202Z,15.62
2023-02-23T05:30:33.262Z,15.62
2023-02-23T05:33:01.035Z,15.62
2023-02-23T05:35:30.348Z,15.62
2023-02-23T05:37:59.606Z,15.62
2023-02-23T05:40:28.905Z,15.63
2023-02-23T05:42:58.089Z,15.62
2023-02-23T05:45:27.337Z,15.62
2023-02-23T05:47:56.680Z,15.62
2023-02-23T05:50:25.902Z,15.61
2023-02-23T05:52:55.093Z,15.63
2023-02-23T05:55:24.402Z,15.62
2023-02-23T05:57:53.645Z,15.61
2023-02-23T06:00:22.607Z,15.62
2023-02-23T06:02:51.020Z,15.61
2023-02-23T06:05:19.767Z,15.61
2023-02-23T06:07:52.743Z,15.61
2023-02-23T06:10:21.930Z,15.61
2023-02-23T06:12:51.154Z,15.63
2023-02-23T06:15:20.223Z,15.62
2023-02-23T06:17:49.028Z,15.62
2023-02-23T06:20:18.378Z,15.61
2023-02-23T06:22:47.558Z,15.62
2023-02-23T06:25:16.812Z,15.62
2023-02-23T06:27:46.161Z,15.61
2023-02-23T06:30:15.341Z,15.61
2023-02-23T06:32:44.585Z,15.61
2023-02-23T06:35:16.680Z,15.61
2023-02-23T06:37:45.599Z,15.61
2023-02-23T06:40:14.500Z,15.61
2023-02-23T06:42:43.268Z,15.62
2023-02-23T06:45:12.422Z,15.60
2023-02-23T06:47:41.644Z,15.61
2023-02-23T06:50:10.824Z,15.61
2023-02-23T06:52:40.306Z,15.60
2023-02-23T06:55:09.206Z,15.61
2023-02-23T06:57:37.966Z,15.61
2023-02-23T07:00:07.294Z,15.61
2023-02-23T07:02:36.655Z,15.61
2023-02-23T07:05:05.492Z,15.61
2023-02-23T07:07:34.736Z,15.62
2023-02-23T07:10:03.984Z,15.62
2023-02-23T07:12:32.366Z,15.62
2023-02-23T07:15:01.623Z,15.63
2023-02-23T07:17:30.400Z,15.63
2023-02-23T07:19:59.554Z,15.64
2023-02-23T07:22:28.783Z,15.64
2023-02-23T07:24:57.333Z,15.65
2023-02-23T07:27:26.045Z,15.64
2023-02-23T07:29:55.198Z,15.65
2023-02-23T07:32:23.456Z,15.66
2023-02-23T07:34:53.912Z,15.65
2023-02-23T07:37:22.498Z,15.66
2023-02-23T07:39:51.112Z,15.67
2023-02-23T07:42:20.445Z,15.67
2023-02-23T07:44:49.699Z,15.66
2023-02-23T07:47:18.960Z,15.67
2023-02-23T07:49:48.342Z,15.67
2023-02-23T07:52:17.722Z,15.68
2023-02-23T07:54:47.026Z,15.69
2023-02-23T07:57:15.825Z,15.70
2023-02-23T07:59:45.202Z,15.69
2023-02-23T08:02:14.719Z,15.69
2023-02-23T08:04:43.208Z,15.70
2023-02-23T08:07:11.603Z,15.70
2023-02-23T08:09:41.363Z,15.70
2023-02-23T08:12:11.573Z,15.72
2023-02-23T08:14:40.856Z,15.72
2023-02-23T08:17:10.050Z,15.73
2023-02-23T08:19:39.204Z,15.70
2023-02-23T08:22:10.004Z,15.74
2023-02-23T08:24:39.785Z,15.74
2023-02-23T08:27:09.177Z,15.76
2023-02-23T08:29:37.976Z,15.75
2023-02-23T08:32:06.941Z,15.77
2023-02-23T08:34:36.257Z,15.76
2023-02-23T08:37:05.548Z,15.78
2023-02-23T08:39:34.763Z,15.77
2023-02-23T08:42:03.272Z,15.78
2023-02-23T08:44:31.920Z,15.78
2023-02-23T08:47:00.656Z,15.78
2023-02-23T08:49:29.483Z,15.79
2023-02-23T08:51:58.537Z,15.79
2023-02-23T08:54:27.211Z,15.80
2023-02-23T08:56:56.136Z,15.80
2023-02-23T08:59:24.322Z,15.80
2023-02-23T09:01:53.171Z,15.83
2023-02-23T09:04:22.024Z,15.85
2023-02-23T09:06:51.242Z,15.86
2023-02-23T09:09:20.274Z,15.88
2023-02-23T09:11:48.770Z,15.88
2023-02-23T09:14:18.136Z,15.88
2023-02-23T09:16:47.001Z,15.89
2023-02-23T09:19:16.020Z,15.91
2023-02-23T09:21:48.435Z,15.90
2023-02-23T09:24:17.278Z,15.91
2023-02-23T09:26:46.406Z,15.93
2023-02-23T09:29:15.214Z,15.95
2023-02-23T09:31:44.586Z,15.95
2023-02-23T09:34:13.996Z,15.95
2023-02-23T09:36:43.200Z,15.96
2023-02-23T09:39:26.406Z,15.96
2023-02-23T09:42:02.375Z,15.95
2023-02-23T09:44:31.833Z,15.95
2023-02-23T09:47:01.073Z,15.95
2023-02-23T09:49:29.971Z,15.95
2023-02-23T09:51:58.565Z,15.97
2023-02-23T09:54:27.831Z,15.99
2023-02-23T09:56:56.694Z,16.01
2023-02-23T09:59:25.666Z,16.01
2023-02-23T10:01:53.904Z,16.02
2023-02-23T10:04:27.164Z,16.00
2023-02-23T10:06:55.789Z,16.00
2023-02-23T10:09:24.582Z,15.99
2023-02-23T10:11:53.880Z,15.98
2023-02-23T10:14:22.704Z,15.97
2023-02-23T10:16:52.049Z,15.97
2023-02-23T10:19:20.912Z,15.96
2023-02-23T10:21:50.147Z,15.97
2023-02-23T10:24:18.922Z,15.97
2023-02-23T10:26:47.892Z,15.98
2023-02-23T10:29:17.230Z,16.00
2023-02-23T10:31:46.253Z,16.00
2023-02-23T10:34:14.944Z,16.01
2023-02-23T10:36:44.265Z,16.02
2023-02-23T10:39:13.550Z,16.04
2023-02-23T10:41:43.035Z,16.06
2023-02-23T10:44:16.964Z,16.05
2023-02-23T10:46:46.599Z,16.07
2023-02-23T10:49:16.103Z,16.07
2023-02-23T10:51:45.046Z,16.08
2023-02-23T10:54:14.507Z,16.09
2023-02-23T10:56:43.891Z,16.10
2023-02-23T10:59:13.142Z,16.12
2023-02-23T11:01:55.423Z,16.13
2023-02-23T11:04:29.562Z,16.14
2023-02-23T11:07:02.567Z,16.17
2023-02-23T11:09:44.475Z,16.19
2023-02-23T11:12:16.054Z,16.20
2023-02-23T11:14:45.030Z,16.21
2023-02-23T11:17:13.736Z,16.21
2023-02-23T11:19:42.696Z,16.22
2023-02-23T11:22:11.915Z,16.22
2023-02-23T11:24:41.061Z,16.23
2023-02-23T11:27:09.840Z,16.23
2023-02-23T11:29:39.054Z,16.25
2023-02-23T11:32:10.216Z,16.24
2023-02-23T11:34:40.082Z,16.27
2023-02-23T11:37:09.515Z,16.28
2023-02-23T11:39:42.283Z,16.29
2023-02-23T11:42:11.201Z,16.30
2023-02-23T11:44:40.178Z,16.32
2023-02-23T11:47:08.888Z,16.33
2023-02-23T11:49:37.780Z,16.34
2023-02-23T11:52:08.133Z,16.34
2023-02-23T11:54:36.857Z,16.36
2023-02-23T11:57:05.668Z,16.35
2023-02-23T11:59:34.826Z,16.35
2023-02-23T12:02:04.166Z,16.35
2023-02-23T12:04:33.064Z,16.35
2023-02-23T12:07:02.388Z,16.35
2023-02-23T12:09:31.716Z,16.36
2023-02-23T12:12:03.937Z,16.36
2023-02-23T12:14:32.623Z,16.37
2023-02-23T12:17:03.638Z,16.37
2023-02-23T12:19:33.462Z,16.37
2023-02-23T12:22:01.862Z,16.36
2023-02-23T12:24:29.570Z,16.36
2023-02-23T12:26:58.643Z,16.36
2023-02-23T12:29:27.190Z,16.35
2023-02-23T12:31:56.089Z,16.34
2023-02-23T12:34:25.411Z,16.33
2023-02-23T12:36:54.808Z,16.31
2023-02-23T12:39:23.904Z,16.26
2023-02-23T12:41:52.144Z,16.30
2023-02-23T12:44:21.451Z,16.29
2023-02-23T12:46:50.691Z,16.28
2023-02-23T12:49:19.961Z,16.28
2023-02-23T12:51:49.256Z,16.26
2023-02-23T12:54:18.538Z,16.24
2023-02-23T12:56:47.683Z,16.23
2023-02-23T12:59:17.000Z,16.23
2023-02-23T13:01:46.246Z,16.23
2023-02-23T13:04:15.088Z,16.22
2023-02-23T13:06:47.735Z,16.22
2023-02-23T13:09:17.041Z,16.20
2023-02-23T13:11:46.430Z,16.21
2023-02-23T13:14:15.701Z,16.19
2023-02-23T13:16:45.124Z,16.21
2023-02-23T13:19:13.996Z,16.21
2023-02-23T13:21:43.304Z,16.21
2023-02-23T13:24:12.032Z,16.23
2023-02-23T13:26:41.442Z,16.24
2023-02-23T13:29:10.007Z,16.25
2023-02-23T13:31:38.858Z,16.27
2023-02-23T13:34:08.112Z,16.28
2023-02-23T13:36:40.788Z,16.28
2023-02-23T13:39:18.005Z,16.27
2023-02-23T13:41:48.268Z,16.27
2023-02-23T13:44:17.487Z,16.28
2023-02-23T13:46:46.847Z,16.28
2023-02-23T13:49:16.219Z,16.29
2023-02-23T13:51:49.752Z,16.30
2023-02-23T13:54:19.111Z,16.31
2023-02-23T13:56:48.113Z,16.33
2023-02-23T13:59:16.703Z,16.32
2023-02-23T14:01:46.025Z,16.32
2023-02-23T14:04:15.440Z,16.30
2023-02-23T14:06:44.652Z,16.30
2023-02-23T14:09:13.412Z,16.30
2023-02-23T14:11:42.423Z,16.30
2023-02-23T14:14:11.035Z,16.29
2023-02-23T14:16:40.054Z,16.30
2023-02-23T14:19:09.344Z,16.30
2023-02-23T14:21:38.309Z,16.29
2023-02-23T14:24:06.926Z,16.28
2023-02-23T14:26:35.717Z,16.29
2023-02-23T14:29:04.420Z,16.29
2023-02-23T14:31:33.811Z,16.29
2023-02-23T14:34:02.560Z,16.26
2023-02-23T14:36:31.914Z,16.26
2023-02-23T14:39:01.180Z,16.25
2023-02-23T14:41:30.525Z,16.24
2023-02-23T14:43:59.636Z,16.23
2023-02-23T14:46:28.305Z,16.21
2023-02-23T14:48:57.514Z,16.21
2023-02-23T14:51:26.796Z,16.21
2023-02-23T14:53:56.121Z,16.16
2023-02-23T14:56:35.471Z,16.11
2023-02-23T14:59:07.063Z,16.17
2023-02-23T15:01:35.770Z,16.14
2023-02-23T15:04:05.052Z,16.14
2023-02-23T15:06:34.373Z,16.14
2023-02-23T15:09:03.664Z,16.13
2023-02-23T15:11:32.189Z,16.12
2023-02-23T15:14:00.739Z,16.13
2023-02-23T15:16:30.173Z,16.12
2023-02-23T15:18:59.429Z,16.12
2023-02-23T15:21:28.650Z,16.11
2023-02-23T15:23:58.068Z,16.11
2023-02-23T15:26:26.902Z,16.11
2023-02-23T15:28:55.616Z,16.09
2023-02-23T15:31:24.915Z,16.08
2023-02-23T15:33:54.253Z,16.08
2023-02-23T15:36:23.666Z,16.06
2023-02-23T15:38:52.967Z,16.05
2023-02-23T15:41:22.306Z,16.05
2023-02-23T15:43:51.666Z,16.03
2023-02-23T15:46:20.870Z,16.03
2023-02-23T15:48:51.058Z,16.02
2023-02-23T15:51:21.804Z,16.02
2023-02-23T15:53:51.153Z,16.01
2023-02-23T15:56:19.878Z,16.01
2023-02-23T15:58:56.513Z,16.01
2023-02-23T16:01:26.382Z,15.99
2023-02-23T16:03:55.844Z,16.00
2023-02-23T16:06:26.193Z,15.99
2023-02-23T16:08:55.427Z,15.98
2023-02-23T16:11:24.686Z,15.97
2023-02-23T16:13:54.035Z,15.96
2023-02-23T16:16:23.495Z,15.95
2023-02-23T16:18:52.741Z,15.95
2023-02-23T16:21:22.000Z,15.94
2023-02-23T16:23:50.381Z,15.93
2023-02-23T16:26:19.962Z,15.92
2023-02-23T16:28:49.389Z,15.91
2023-02-23T16:31:18.704Z,15.91
2023-02-23T16:33:48.017Z,15.90
2023-02-23T16:36:17.018Z,15.90
2023-02-23T16:38:49.637Z,15.88
2023-02-23T16:41:18.870Z,15.88
2023-02-23T16:43:48.177Z,15.88
2023-02-23T16:46:17.819Z,15.86
2023-02-23T16:48:46.551Z,15.86
2023-02-23T16:51:15.223Z,15.86
2023-02-23T16:53:44.129Z,15.85
2023-02-23T16:56:13.596Z,15.83
2023-02-23T16:58:42.599Z,15.82
2023-02-23T17:01:11.250Z,15.81
2023-02-23T17:03:47.314Z,15.80
2023-02-23T17:06:20.225Z,15.79
2023-02-23T17:08:57.497Z,15.79
2023-02-23T17:11:29.414Z,15.79
2023-02-23T17:13:58.151Z,15.76
2023-02-23T17:16:27.445Z,15.73
2023-02-23T17:18:56.697Z,15.76
2023-02-23T17:21:25.625Z,15.74
2023-02-23T17:23:54.326Z,15.75
2023-02-23T17:26:23.638Z,15.75
2023-02-23T17:28:52.581Z,15.74
2023-02-23T17:31:22.908Z,15.73
2023-02-23T17:33:54.095Z,15.73
2023-02-23T17:36:23.442Z,15.72
2023-02-23T17:38:52.226Z,15.71
2023-02-23T17:41:21.900Z,15.71
2023-02-23T17:43:51.373Z,15.70
2023-02-23T17:46:20.277Z,15.70
2023-02-23T17:48:49.232Z,15.70
2023-02-23T17:51:17.621Z,15.70
2023-02-23T17:53:46.857Z,15.64
2023-02-23T17:56:15.908Z,15.70
2023-02-23T17:58:44.293Z,15.68
2023-02-23T18:01:12.340Z,15.66
2023-02-23T18:03:41.160Z,15.66
2023-02-23T18:06:10.730Z,15.66
2023-02-23T18:08:40.122Z,15.64
2023-02-23T18:11:09.388Z,15.63
2023-02-23T18:13:38.628Z,15.63
2023-02-23T18:16:08.098Z,15.62
2023-02-23T18:18:37.448Z,15.62
2023-02-23T18:21:06.793Z,15.62
2023-02-23T18:23:35.825Z,15.61
2023-02-23T18:26:04.209Z,15.60
2023-02-23T18:28:33.007Z,15.59
2023-02-23T18:31:03.260Z,15.58
2023-02-23T18:33:33.583Z,15.57
2023-02-23T18:36:02.824Z,15.56
2023-02-23T18:38:31.919Z,15.55
2023-02-23T18:41:04.298Z,15.54
2023-02-23T18:43:33.344Z,15.53
2023-02-23T18:46:01.999Z,15.52
2023-02-23T18:48:31.489Z,15.52
2023-02-23T18:51:00.234Z,15.53
2023-02-23T18:53:29.521Z,15.53
2023-02-23T18:55:58.859Z,15.54
2023-02-23T18:58:28.218Z,15.52
2023-02-23T19:00:56.675Z,15.50
2023-02-23T19:03:25.939Z,15.53
2023-02-23T19:05:55.101Z,15.52
2023-02-23T19:08:23.877Z,15.53
2023-02-23T19:10:52.723Z,15.53
2023-02-23T19:13:21.129Z,15.52
2023-02-23T19:15:50.190Z,15.52
2023-02-23T19:18:19.250Z,15.52
2023-02-23T19:20:47.942Z,15.51
2023-02-23T19:23:16.456Z,15.52
2023-02-23T19:25:45.107Z,15.52
2023-02-23T19:28:13.839Z,15.50
2023-02-23T19:30:43.107Z,15.51
2023-02-23T19:33:12.480Z,15.50
2023-02-23T19:35:41.547Z,15.50
2023-02-23T19:38:09.714Z,15.49
2023-02-23T19:40:39.054Z,15.49
2023-02-23T19:43:07.843Z,15.48
2023-02-23T19:45:37.098Z,15.48
2023-02-23T19:48:06.390Z,15.48
2023-02-23T19:50:35.694Z,15.47
2023-02-23T19:53:05.831Z,15.47
2023-02-23T19:55:36.298Z,15.47
2023-02-23T19:58:05.678Z,15.47
2023-02-23T20:00:34.192Z,15.46
2023-02-23T20:03:02.825Z,15.46
2023-02-23T20:05:32.181Z,15.46
2023-02-23T20:08:01.030Z,15.45
2023-02-23T20:10:30.249Z,15.45
2023-02-23T20:12:59.495Z,15.45
2023-02-23T20:15:28.196Z,15.44
2023-02-23T20:17:57.570Z,15.44
2023-02-23T20:20:25.429Z,15.43
2023-02-23T20:22:54.839Z,15.42
2023-02-23T20:25:24.138Z,15.42
2023-02-23T20:27:53.145Z,15.42
2023-02-23T20:30:25.480Z,15.41
2023-02-23T20:32:54.780Z,15.41
2023-02-23T20:35:25.192Z,15.41
2023-02-23T20:37:54.470Z,15.41
2023-02-23T20:40:22.909Z,15.40
2023-02-23T20:42:51.907Z,15.39
2023-02-23T20:45:20.537Z,15.38
2023-02-23T20:47:49.860Z,15.38
2023-02-23T20:50:19.240Z,15.37
2023-02-23T20:52:48.680Z,15.38
2023-02-23T20:55:17.740Z,15.37
2023-02-23T20:57:46.388Z,15.38
2023-02-23T21:00:15.665Z,15.36
2023-02-23T21:02:44.502Z,15.35
2023-02-23T21:05:13.837Z,15.35
2023-02-23T21:07:43.164Z,15.35
2023-02-23T21:10:12.419Z,15.35
2023-02-23T21:12:41.766Z,15.34
2023-02-23T21:15:11.073Z,15.33
2023-02-23T21:17:40.379Z,15.33
2023-02-23T21:20:09.738Z,15.32
2023-02-23T21:22:39.009Z,15.33
2023-02-23T21:25:07.982Z,15.31
2023-02-23T21:27:36.551Z,15.31
2023-02-23T21:30:06.353Z,15.30
2023-02-23T21:32:34.940Z,15.30
2023-02-23T21:35:03.652Z,15.29
2023-02-23T21:37:33.064Z,15.30
2023-02-23T21:40:01.419Z,15.29
2023-02-23T21:42:30.670Z,15.28
2023-02-23T21:44:59.882Z,15.28
2023-02-23T21:47:28.284Z,15.27
2023-02-23T21:49:57.545Z,15.26
2023-02-23T21:52:26.828Z,15.25
2023-02-23T21:54:56.231Z,15.25
2023-02-23T21:57:24.830Z,15.24
2023-02-23T21:59:53.518Z,15.24
2023-02-23T22:02:26.734Z,15.24
2023-02-23T22:04:56.037Z,15.24
2023-02-23T22:07:25.221Z,15.23
2023-02-23T22:09:54.494Z,15.23
2023-02-23T22:12:23.998Z,15.22
2023-02-23T22:14:53.433Z,15.23
2023-02-23T22:17:28.491Z,15.22
2023-02-23T22:19:57.973Z,15.21
2023-02-23T22:22:27.427Z,15.20
2023-02-23T22:24:56.685Z,15.21
2023-02-23T22:27:25.669Z,15.20
2023-02-23T22:29:54.333Z,15.19
2023-02-23T22:32:23.600Z,15.19
2023-02-23T22:34:52.375Z,15.18
2023-02-23T22:37:21.670Z,15.17
2023-02-23T22:39:51.048Z,15.16
2023-02-23T22:42:20.449Z,15.17
2023-02-23T22:44:49.844Z,15.16
2023-02-23T22:47:18.465Z,15.16
2023-02-23T22:49:47.981Z,15.15
2023-02-23T22:52:18.140Z,15.15
2023-02-23T22:54:47.400Z,15.14
2023-02-23T22:57:16.650Z,15.14
2023-02-23T22:59:45.939Z,15.13
2023-02-23T23:02:15.109Z,15.12
2023-02-23T23:04:44.471Z,15.13
2023-02-23T23:07:12.876Z,15.13
2023-02-23T23:09:42.210Z,15.12
2023-02-23T23:12:11.364Z,15.12
2023-02-23T23:14:40.591Z,15.12
2023-02-23T23:17:09.887Z,15.11
2023-02-23T23:19:37.819Z,15.10
2023-02-23T23:22:05.982Z,15.09
2023-02-23T23:24:34.757Z,15.09
2023-02-23T23:27:04.117Z,15.08
2023-02-23T23:29:32.910Z,15.07
2023-02-23T23:32:02.165Z,15.06
2023-02-23T23:34:31.480Z,15.06
2023-02-23T23:37:00.684Z,15.04
2023-02-23T23:39:29.953Z,15.04
2023-02-23T23:41:59.175Z,15.03
2023-02-23T23:44:27.860Z,15.01
2023-02-23T23:46:56.780Z,15.01
2023-02-23T23:49:25.472Z,15.00
2023-02-23T23:51:53.902Z,14.99
2023-02-23T23:54:23.298Z,15.00
2023-02-23T23:56:52.662Z,14.99
2023-02-23T23:59:21.959Z,15.00
